sensor_id;sensor_type;location;lat;lon;timestamp;P1;durP1;ratioP1;P2;durP2;ratioP2
64110;SDS011;50401;48.188;11.566;2023-06-10T00:02:25;9.05;;;5.82;;
64110;SDS011;50401;48.188;11.566;2023-06-10T00:04:52;9.63;;;6.88;;
64110;SDS011;50401;48.188;11.566;2023-06-10T00:07:17;10.68;;;6.57;;
64110;SDS011;50401;48.188;11.566;2023-06-10T00:09:43;10.05;;;7.05;;
64110;SDS011;50401;48.188;11.566;2023-06-10T00:12:09;10.95;;;6.80;;
64110;SDS011;50401;48.188;11.566;2023-06-10T00:14:36;13.10;;;7.00;;
64110;SDS011;50401;48.188;11.566;2023-06-10T00:17:02;9.35;;;7.05;;
64110;SDS011;50401;48.188;11.566;2023-06-10T00:19:28;13.50;;;6.80;;
64110;SDS011;50401;48.188;11.566;2023-06-10T00:21:56;8.65;;;7.20;;
64110;SDS011;50401;48.188;11.566;2023-06-10T00:24:22;12.40;;;7.55;;
64110;SDS011;50401;48.188;11.566;2023-06-10T00:26:47;10.75;;;7.30;;
64110;SDS011;50401;48.188;11.566;2023-06-10T00:29:13;11.15;;;7.38;;
64110;SDS011;50401;48.188;11.566;2023-06-10T00:31:39;10.75;;;7.10;;
64110;SDS011;50401;48.188;11.566;2023-06-10T00:34:05;8.55;;;7.35;;
64110;SDS011;50401;48.188;11.566;2023-06-10T00:36:30;9.45;;;7.15;;
64110;SDS011;50401;48.188;11.566;2023-06-10T00:39:00;8.85;;;7.50;;
64110;SDS011;50401;48.188;11.566;2023-06-10T00:41:26;10.35;;;7.70;;
64110;SDS011;50401;48.188;11.566;2023-06-10T00:43:51;10.65;;;7.68;;
64110;SDS011;50401;48.188;11.566;2023-06-10T00:46:17;9.55;;;7.35;;
64110;SDS011;50401;48.188;11.566;2023-06-10T00:48:43;10.55;;;7.60;;
64110;SDS011;50401;48.188;11.566;2023-06-10T00:51:10;10.45;;;7.70;;
64110;SDS011;50401;48.188;11.566;2023-06-10T00:53:39;8.05;;;7.22;;
64110;SDS011;50401;48.188;11.566;2023-06-10T00:56:06;9.88;;;7.40;;
64110;SDS011;50401;48.188;11.566;2023-06-10T00:58:32;13.32;;;7.70;;
64110;SDS011;50401;48.188;11.566;2023-06-10T01:00:57;10.82;;;7.55;;
64110;SDS011;50401;48.188;11.566;2023-06-10T01:03:23;13.32;;;7.50;;
64110;SDS011;50401;48.188;11.566;2023-06-10T01:05:56;9.50;;;7.80;;
64110;SDS011;50401;48.188;11.566;2023-06-10T01:10:55;9.02;;;7.75;;
64110;SDS011;50401;48.188;11.566;2023-06-10T01:13:24;9.30;;;7.40;;
64110;SDS011;50401;48.188;11.566;2023-06-10T01:15:53;10.13;;;7.57;;
64110;SDS011;50401;48.188;11.566;2023-06-10T01:18:19;9.48;;;7.65;;
64110;SDS011;50401;48.188;11.566;2023-06-10T01:20:46;9.90;;;7.75;;
64110;SDS011;50401;48.188;11.566;2023-06-10T01:23:13;9.43;;;7.50;;
64110;SDS011;50401;48.188;11.566;2023-06-10T01:25:41;9.00;;;7.57;;
64110;SDS011;50401;48.188;11.566;2023-06-10T01:28:14;9.95;;;7.32;;
64110;SDS011;50401;48.188;11.566;2023-06-10T01:31:06;11.43;;;7.65;;
64110;SDS011;50401;48.188;11.566;2023-06-10T01:33:43;10.10;;;6.95;;
64110;SDS011;50401;48.188;11.566;2023-06-10T01:36:12;11.77;;;7.70;;
64110;SDS011;50401;48.188;11.566;2023-06-10T01:38:45;10.05;;;7.15;;
64110;SDS011;50401;48.188;11.566;2023-06-10T01:41:13;10.40;;;8.00;;
64110;SDS011;50401;48.188;11.566;2023-06-10T01:43:40;9.77;;;7.57;;
64110;SDS011;50401;48.188;11.566;2023-06-10T01:46:07;11.70;;;8.30;;
64110;SDS011;50401;48.188;11.566;2023-06-10T01:48:32;11.65;;;8.68;;
64110;SDS011;50401;48.188;11.566;2023-06-10T01:50:58;12.43;;;8.68;;
64110;SDS011;50401;48.188;11.566;2023-06-10T01:53:23;11.70;;;8.90;;
64110;SDS011;50401;48.188;11.566;2023-06-10T01:55:49;11.57;;;8.10;;
64110;SDS011;50401;48.188;11.566;2023-06-10T01:58:14;12.15;;;9.82;;
64110;SDS011;50401;48.188;11.566;2023-06-10T02:00:40;12.98;;;8.90;;
64110;SDS011;50401;48.188;11.566;2023-06-10T02:03:05;11.65;;;8.60;;
64110;SDS011;50401;48.188;11.566;2023-06-10T02:05:31;12.43;;;9.57;;
64110;SDS011;50401;48.188;11.566;2023-06-10T02:07:56;12.38;;;7.85;;
64110;SDS011;50401;48.188;11.566;2023-06-10T02:10:21;10.25;;;8.27;;
64110;SDS011;50401;48.188;11.566;2023-06-10T02:12:47;9.48;;;7.68;;
64110;SDS011;50401;48.188;11.566;2023-06-10T02:15:12;10.45;;;8.43;;
64110;SDS011;50401;48.188;11.566;2023-06-10T02:17:38;10.63;;;8.30;;
64110;SDS011;50401;48.188;11.566;2023-06-10T02:20:03;10.55;;;9.05;;
64110;SDS011;50401;48.188;11.566;2023-06-10T02:22:32;11.45;;;8.52;;
64110;SDS011;50401;48.188;11.566;2023-06-10T02:24:57;13.50;;;9.23;;
64110;SDS011;50401;48.188;11.566;2023-06-10T02:27:23;16.23;;;8.45;;
64110;SDS011;50401;48.188;11.566;2023-06-10T02:29:48;10.40;;;8.63;;
64110;SDS011;50401;48.188;11.566;2023-06-10T02:32:13;11.18;;;8.55;;
64110;SDS011;50401;48.188;11.566;2023-06-10T02:34:39;11.52;;;7.80;;
64110;SDS011;50401;48.188;11.566;2023-06-10T02:37:04;9.52;;;7.72;;
64110;SDS011;50401;48.188;11.566;2023-06-10T02:39:30;12.88;;;8.27;;
64110;SDS011;50401;48.188;11.566;2023-06-10T02:41:55;10.70;;;8.52;;
64110;SDS011;50401;48.188;11.566;2023-06-10T02:44:21;10.65;;;7.90;;
64110;SDS011;50401;48.188;11.566;2023-06-10T02:46:46;13.85;;;8.38;;
64110;SDS011;50401;48.188;11.566;2023-06-10T02:49:12;12.57;;;8.38;;
64110;SDS011;50401;48.188;11.566;2023-06-10T02:51:38;11.65;;;7.93;;
64110;SDS011;50401;48.188;11.566;2023-06-10T02:54:03;11.82;;;8.23;;
64110;SDS011;50401;48.188;11.566;2023-06-10T02:56:29;11.60;;;8.63;;
64110;SDS011;50401;48.188;11.566;2023-06-10T02:58:55;10.15;;;8.45;;
64110;SDS011;50401;48.188;11.566;2023-06-10T03:01:21;11.48;;;8.40;;
64110;SDS011;50401;48.188;11.566;2023-06-10T03:03:46;10.20;;;8.35;;
64110;SDS011;50401;48.188;11.566;2023-06-10T03:06:12;12.18;;;8.73;;
64110;SDS011;50401;48.188;11.566;2023-06-10T03:08:38;12.57;;;8.50;;
64110;SDS011;50401;48.188;11.566;2023-06-10T03:11:04;10.40;;;8.50;;
64110;SDS011;50401;48.188;11.566;2023-06-10T03:13:30;12.63;;;8.63;;
64110;SDS011;50401;48.188;11.566;2023-06-10T03:15:55;13.05;;;8.70;;
64110;SDS011;50401;48.188;11.566;2023-06-10T03:18:21;11.40;;;9.35;;
64110;SDS011;50401;48.188;11.566;2023-06-10T03:20:51;11.32;;;9.73;;
64110;SDS011;50401;48.188;11.566;2023-06-10T03:23:16;13.60;;;9.70;;
64110;SDS011;50401;48.188;11.566;2023-06-10T03:25:42;13.52;;;9.68;;
64110;SDS011;50401;48.188;11.566;2023-06-10T03:28:07;16.55;;;10.48;;
64110;SDS011;50401;48.188;11.566;2023-06-10T03:30:32;14.30;;;9.63;;
64110;SDS011;50401;48.188;11.566;2023-06-10T03:32:58;13.55;;;9.27;;
64110;SDS011;50401;48.188;11.566;2023-06-10T03:35:23;15.98;;;10.02;;
64110;SDS011;50401;48.188;11.566;2023-06-10T03:37:48;13.45;;;9.68;;
64110;SDS011;50401;48.188;11.566;2023-06-10T03:40:14;16.50;;;10.60;;
64110;SDS011;50401;48.188;11.566;2023-06-10T03:42:39;13.73;;;10.40;;
64110;SDS011;50401;48.188;11.566;2023-06-10T03:45:05;15.27;;;10.93;;
64110;SDS011;50401;48.188;11.566;2023-06-10T03:47:34;21.10;;;9.82;;
64110;SDS011;50401;48.188;11.566;2023-06-10T03:50:01;12.30;;;9.55;;
64110;SDS011;50401;48.188;11.566;2023-06-10T03:52:28;12.00;;;9.88;;
64110;SDS011;50401;48.188;11.566;2023-06-10T03:54:53;11.93;;;9.73;;
64110;SDS011;50401;48.188;11.566;2023-06-10T03:57:19;19.95;;;9.95;;
64110;SDS011;50401;48.188;11.566;2023-06-10T03:59:44;13.75;;;10.52;;
64110;SDS011;50401;48.188;11.566;2023-06-10T04:02:10;15.68;;;10.90;;
64110;SDS011;50401;48.188;11.566;2023-06-10T04:04:35;16.65;;;10.50;;
64110;SDS011;50401;48.188;11.566;2023-06-10T04:07:02;12.55;;;10.25;;
64110;SDS011;50401;48.188;11.566;2023-06-10T04:09:28;14.40;;;10.23;;
64110;SDS011;50401;48.188;11.566;2023-06-10T04:11:53;12.90;;;10.25;;
64110;SDS011;50401;48.188;11.566;2023-06-10T04:14:19;15.77;;;10.82;;
64110;SDS011;50401;48.188;11.566;2023-06-10T04:16:44;13.85;;;10.10;;
64110;SDS011;50401;48.188;11.566;2023-06-10T04:19:09;15.65;;;10.45;;
64110;SDS011;50401;48.188;11.566;2023-06-10T04:21:35;12.85;;;10.23;;
64110;SDS011;50401;48.188;11.566;2023-06-10T04:24:01;13.68;;;10.52;;
64110;SDS011;50401;48.188;11.566;2023-06-10T04:26:26;14.27;;;10.02;;
64110;SDS011;50401;48.188;11.566;2023-06-10T04:28:52;12.05;;;9.35;;
64110;SDS011;50401;48.188;11.566;2023-06-10T04:31:17;14.65;;;10.32;;
64110;SDS011;50401;48.188;11.566;2023-06-10T04:33:43;13.32;;;10.43;;
64110;SDS011;50401;48.188;11.566;2023-06-10T04:36:08;14.60;;;10.32;;
64110;SDS011;50401;48.188;11.566;2023-06-10T04:38:34;15.52;;;10.05;;
64110;SDS011;50401;48.188;11.566;2023-06-10T04:40:59;16.40;;;10.82;;
64110;SDS011;50401;48.188;11.566;2023-06-10T04:43:24;14.68;;;10.95;;
64110;SDS011;50401;48.188;11.566;2023-06-10T04:45:50;12.75;;;10.20;;
64110;SDS011;50401;48.188;11.566;2023-06-10T04:48:15;17.23;;;9.77;;
64110;SDS011;50401;48.188;11.566;2023-06-10T04:50:41;12.18;;;9.60;;
64110;SDS011;50401;48.188;11.566;2023-06-10T04:53:06;13.25;;;9.23;;
64110;SDS011;50401;48.188;11.566;2023-06-10T04:55:32;15.75;;;10.32;;
64110;SDS011;50401;48.188;11.566;2023-06-10T04:57:59;13.50;;;9.45;;
64110;SDS011;50401;48.188;11.566;2023-06-10T05:00:24;14.07;;;9.90;;
64110;SDS011;50401;48.188;11.566;2023-06-10T05:02:50;15.40;;;10.70;;
64110;SDS011;50401;48.188;11.566;2023-06-10T05:05:17;15.00;;;9.63;;
64110;SDS011;50401;48.188;11.566;2023-06-10T05:07:42;13.05;;;9.43;;
64110;SDS011;50401;48.188;11.566;2023-06-10T05:10:08;13.50;;;10.20;;
64110;SDS011;50401;48.188;11.566;2023-06-10T05:12:33;15.57;;;9.93;;
64110;SDS011;50401;48.188;11.566;2023-06-10T05:14:59;14.15;;;11.15;;
64110;SDS011;50401;48.188;11.566;2023-06-10T05:17:24;15.35;;;11.48;;
64110;SDS011;50401;48.188;11.566;2023-06-10T05:19:50;15.55;;;11.57;;
64110;SDS011;50401;48.188;11.566;2023-06-10T05:22:15;16.75;;;11.07;;
64110;SDS011;50401;48.188;11.566;2023-06-10T05:24:42;16.00;;;11.07;;
64110;SDS011;50401;48.188;11.566;2023-06-10T05:27:09;16.42;;;10.77;;
64110;SDS011;50401;48.188;11.566;2023-06-10T05:29:34;13.98;;;10.48;;
64110;SDS011;50401;48.188;11.566;2023-06-10T05:32:00;16.13;;;11.18;;
64110;SDS011;50401;48.188;11.566;2023-06-10T05:34:28;16.97;;;10.33;;
64110;SDS011;50401;48.188;11.566;2023-06-10T05:36:54;13.27;;;10.73;;
64110;SDS011;50401;48.188;11.566;2023-06-10T05:39:19;14.23;;;11.23;;
64110;SDS011;50401;48.188;11.566;2023-06-10T05:41:45;15.82;;;11.05;;
64110;SDS011;50401;48.188;11.566;2023-06-10T05:44:11;18.75;;;10.48;;
64110;SDS011;50401;48.188;11.566;2023-06-10T05:46:36;14.23;;;10.32;;
64110;SDS011;50401;48.188;11.566;2023-06-10T05:49:02;15.68;;;9.45;;
64110;SDS011;50401;48.188;11.566;2023-06-10T05:51:27;10.55;;;8.55;;
64110;SDS011;50401;48.188;11.566;2023-06-10T05:53:53;16.60;;;11.15;;
64110;SDS011;50401;48.188;11.566;2023-06-10T05:56:19;13.35;;;9.98;;
64110;SDS011;50401;48.188;11.566;2023-06-10T05:58:46;18.17;;;10.52;;
64110;SDS011;50401;48.188;11.566;2023-06-10T06:01:11;13.02;;;9.45;;
64110;SDS011;50401;48.188;11.566;2023-06-10T06:03:37;13.35;;;9.32;;
64110;SDS011;50401;48.188;11.566;2023-06-10T06:06:02;13.55;;;9.00;;
64110;SDS011;50401;48.188;11.566;2023-06-10T06:08:28;11.13;;;8.85;;
64110;SDS011;50401;48.188;11.566;2023-06-10T06:10:54;16.75;;;11.13;;
64110;SDS011;50401;48.188;11.566;2023-06-10T06:13:19;17.65;;;13.00;;
64110;SDS011;50401;48.188;11.566;2023-06-10T06:15:45;18.90;;;12.10;;
64110;SDS011;50401;48.188;11.566;2023-06-10T06:18:10;21.67;;;14.73;;
64110;SDS011;50401;48.188;11.566;2023-06-10T06:20:36;20.40;;;14.80;;
64110;SDS011;50401;48.188;11.566;2023-06-10T06:23:01;16.35;;;13.95;;
64110;SDS011;50401;48.188;11.566;2023-06-10T06:25:26;19.27;;;12.73;;
64110;SDS011;50401;48.188;11.566;2023-06-10T06:27:52;12.15;;;9.27;;
64110;SDS011;50401;48.188;11.566;2023-06-10T06:30:17;12.38;;;9.50;;
64110;SDS011;50401;48.188;11.566;2023-06-10T06:32:43;11.77;;;9.35;;
64110;SDS011;50401;48.188;11.566;2023-06-10T06:35:08;13.52;;;9.30;;
64110;SDS011;50401;48.188;11.566;2023-06-10T06:37:33;10.88;;;9.18;;
64110;SDS011;50401;48.188;11.566;2023-06-10T06:40:00;14.65;;;9.95;;
64110;SDS011;50401;48.188;11.566;2023-06-10T06:42:25;11.77;;;8.60;;
64110;SDS011;50401;48.188;11.566;2023-06-10T06:44:50;13.27;;;9.00;;
64110;SDS011;50401;48.188;11.566;2023-06-10T06:47:16;12.68;;;8.93;;
64110;SDS011;50401;48.188;11.566;2023-06-10T06:52:10;12.90;;;8.93;;
64110;SDS011;50401;48.188;11.566;2023-06-10T06:54:35;10.93;;;8.07;;
64110;SDS011;50401;48.188;11.566;2023-06-10T06:57:01;10.85;;;8.18;;
64110;SDS011;50401;48.188;11.566;2023-06-10T06:59:27;10.90;;;7.20;;
64110;SDS011;50401;48.188;11.566;2023-06-10T07:01:52;11.63;;;8.40;;
64110;SDS011;50401;48.188;11.566;2023-06-10T07:04:19;12.27;;;8.98;;
64110;SDS011;50401;48.188;11.566;2023-06-10T07:06:46;8.57;;;7.70;;
64110;SDS011;50401;48.188;11.566;2023-06-10T07:09:12;12.43;;;8.70;;
64110;SDS011;50401;48.188;11.566;2023-06-10T07:11:37;14.60;;;8.88;;
64110;SDS011;50401;48.188;11.566;2023-06-10T07:14:03;11.25;;;7.70;;
64110;SDS011;50401;48.188;11.566;2023-06-10T07:16:28;10.68;;;7.35;;
64110;SDS011;50401;48.188;11.566;2023-06-10T07:18:53;12.30;;;7.18;;
64110;SDS011;50401;48.188;11.566;2023-06-10T07:21:19;9.38;;;7.25;;
64110;SDS011;50401;48.188;11.566;2023-06-10T07:23:45;10.50;;;8.38;;
64110;SDS011;50401;48.188;11.566;2023-06-10T07:26:11;8.57;;;7.28;;
64110;SDS011;50401;48.188;11.566;2023-06-10T07:28:38;10.10;;;6.70;;
64110;SDS011;50401;48.188;11.566;2023-06-10T07:31:04;7.63;;;6.65;;
64110;SDS011;50401;48.188;11.566;2023-06-10T07:33:29;9.55;;;6.72;;
64110;SDS011;50401;48.188;11.566;2023-06-10T07:35:55;6.60;;;5.20;;
64110;SDS011;50401;48.188;11.566;2023-06-10T07:38:20;7.97;;;5.03;;
64110;SDS011;50401;48.188;11.566;2023-06-10T07:40:46;7.75;;;5.45;;
64110;SDS011;50401;48.188;11.566;2023-06-10T07:43:12;7.10;;;5.63;;
64110;SDS011;50401;48.188;11.566;2023-06-10T07:45:39;8.02;;;5.57;;
64110;SDS011;50401;48.188;11.566;2023-06-10T07:48:05;7.20;;;5.38;;
64110;SDS011;50401;48.188;11.566;2023-06-10T07:50:30;15.32;;;5.88;;
64110;SDS011;50401;48.188;11.566;2023-06-10T07:52:56;7.43;;;5.40;;
64110;SDS011;50401;48.188;11.566;2023-06-10T07:55:21;8.05;;;5.38;;
64110;SDS011;50401;48.188;11.566;2023-06-10T07:57:47;5.78;;;5.18;;
64110;SDS011;50401;48.188;11.566;2023-06-10T08:00:12;6.63;;;5.57;;
64110;SDS011;50401;48.188;11.566;2023-06-10T08:02:38;5.68;;;4.55;;
64110;SDS011;50401;48.188;11.566;2023-06-10T08:05:04;6.95;;;5.32;;
64110;SDS011;50401;48.188;11.566;2023-06-10T08:07:29;6.82;;;6.13;;
64110;SDS011;50401;48.188;11.566;2023-06-10T08:09:55;9.20;;;5.93;;
64110;SDS011;50401;48.188;11.566;2023-06-10T08:12:21;7.70;;;6.90;;
64110;SDS011;50401;48.188;11.566;2023-06-10T08:14:46;9.52;;;7.72;;
64110;SDS011;50401;48.188;11.566;2023-06-10T08:17:12;9.60;;;6.82;;
64110;SDS011;50401;48.188;11.566;2023-06-10T08:19:37;7.38;;;6.35;;
64110;SDS011;50401;48.188;11.566;2023-06-10T08:22:02;7.82;;;5.97;;
64110;SDS011;50401;48.188;11.566;2023-06-10T08:24:28;7.28;;;5.82;;
64110;SDS011;50401;48.188;11.566;2023-06-10T08:26:54;8.43;;;5.85;;
64110;SDS011;50401;48.188;11.566;2023-06-10T08:29:21;9.80;;;6.25;;
64110;SDS011;50401;48.188;11.566;2023-06-10T08:31:46;7.90;;;6.13;;
64110;SDS011;50401;48.188;11.566;2023-06-10T08:34:12;6.70;;;5.82;;
64110;SDS011;50401;48.188;11.566;2023-06-10T08:36:37;10.27;;;6.13;;
64110;SDS011;50401;48.188;11.566;2023-06-10T08:39:03;5.72;;;4.75;;
64110;SDS011;50401;48.188;11.566;2023-06-10T08:41:28;4.93;;;4.30;;
64110;SDS011;50401;48.188;11.566;2023-06-10T08:46:34;6.00;;;5.40;;
64110;SDS011;50401;48.188;11.566;2023-06-10T08:49:05;8.25;;;6.10;;
64110;SDS011;50401;48.188;11.566;2023-06-10T08:51:34;10.77;;;6.93;;
64110;SDS011;50401;48.188;11.566;2023-06-10T08:54:02;8.45;;;6.43;;
64110;SDS011;50401;48.188;11.566;2023-06-10T08:56:37;8.80;;;6.65;;
64110;SDS011;50401;48.188;11.566;2023-06-10T09:01:30;11.02;;;6.65;;
64110;SDS011;50401;48.188;11.566;2023-06-10T09:03:56;9.98;;;6.70;;
64110;SDS011;50401;48.188;11.566;2023-06-10T09:06:23;9.95;;;6.70;;
64110;SDS011;50401;48.188;11.566;2023-06-10T09:08:50;8.52;;;6.97;;
64110;SDS011;50401;48.188;11.566;2023-06-10T09:11:16;9.68;;;7.25;;
64110;SDS011;50401;48.188;11.566;2023-06-10T09:13:41;8.68;;;7.20;;
64110;SDS011;50401;48.188;11.566;2023-06-10T09:16:07;12.30;;;7.47;;
64110;SDS011;50401;48.188;11.566;2023-06-10T09:18:32;8.48;;;6.18;;
64110;SDS011;50401;48.188;11.566;2023-06-10T09:20:59;8.07;;;6.85;;
64110;SDS011;50401;48.188;11.566;2023-06-10T09:23:25;8.98;;;7.07;;
64110;SDS011;50401;48.188;11.566;2023-06-10T09:25:57;9.35;;;6.50;;
64110;SDS011;50401;48.188;11.566;2023-06-10T09:28:23;9.23;;;5.57;;
64110;SDS011;50401;48.188;11.566;2023-06-10T09:30:49;8.88;;;6.05;;
64110;SDS011;50401;48.188;11.566;2023-06-10T09:33:14;8.65;;;5.97;;
64110;SDS011;50401;48.188;11.566;2023-06-10T09:35:47;7.82;;;5.47;;
64110;SDS011;50401;48.188;11.566;2023-06-10T09:38:15;7.40;;;5.60;;
64110;SDS011;50401;48.188;11.566;2023-06-10T09:40:52;10.50;;;5.78;;
64110;SDS011;50401;48.188;11.566;2023-06-10T09:43:18;7.70;;;5.70;;
64110;SDS011;50401;48.188;11.566;2023-06-10T09:45:44;6.57;;;5.55;;
64110;SDS011;50401;48.188;11.566;2023-06-10T09:48:09;9.55;;;7.28;;
64110;SDS011;50401;48.188;11.566;2023-06-10T09:50:41;5.82;;;5.20;;
64110;SDS011;50401;48.188;11.566;2023-06-10T09:53:10;10.00;;;6.15;;
64110;SDS011;50401;48.188;11.566;2023-06-10T09:55:39;8.15;;;5.88;;
64110;SDS011;50401;48.188;11.566;2023-06-10T09:58:06;7.30;;;5.68;;
64110;SDS011;50401;48.188;11.566;2023-06-10T10:00:32;9.63;;;5.63;;
64110;SDS011;50401;48.188;11.566;2023-06-10T10:02:59;9.23;;;5.28;;
64110;SDS011;50401;48.188;11.566;2023-06-10T10:05:25;9.65;;;5.50;;
64110;SDS011;50401;48.188;11.566;2023-06-10T10:07:50;5.30;;;4.65;;
64110;SDS011;50401;48.188;11.566;2023-06-10T10:10:17;5.63;;;4.57;;
64110;SDS011;50401;48.188;11.566;2023-06-10T10:12:46;5.57;;;4.78;;
64110;SDS011;50401;48.188;11.566;2023-06-10T10:15:13;6.90;;;5.35;;
64110;SDS011;50401;48.188;11.566;2023-06-10T10:17:43;6.90;;;4.87;;
64110;SDS011;50401;48.188;11.566;2023-06-10T10:20:13;6.40;;;4.60;;
64110;SDS011;50401;48.188;11.566;2023-06-10T10:22:43;5.20;;;4.70;;
64110;SDS011;50401;48.188;11.566;2023-06-10T10:25:28;7.00;;;5.10;;
64110;SDS011;50401;48.188;11.566;2023-06-10T10:30:24;10.23;;;6.07;;
64110;SDS011;50401;48.188;11.566;2023-06-10T10:33:02;9.27;;;5.00;;
64110;SDS011;50401;48.188;11.566;2023-06-10T10:35:32;8.65;;;5.07;;
64110;SDS011;50401;48.188;11.566;2023-06-10T10:37:58;6.38;;;5.07;;
64110;SDS011;50401;48.188;11.566;2023-06-10T10:40:24;13.43;;;5.90;;
64110;SDS011;50401;48.188;11.566;2023-06-10T10:42:51;5.93;;;5.03;;
64110;SDS011;50401;48.188;11.566;2023-06-10T10:45:17;4.93;;;4.43;;
64110;SDS011;50401;48.188;11.566;2023-06-10T10:47:46;5.43;;;4.85;;
64110;SDS011;50401;48.188;11.566;2023-06-10T10:50:18;6.85;;;4.55;;
64110;SDS011;50401;48.188;11.566;2023-06-10T10:52:52;4.80;;;4.30;;
64110;SDS011;50401;48.188;11.566;2023-06-10T10:55:24;4.95;;;4.45;;
64110;SDS011;50401;48.188;11.566;2023-06-10T10:58:03;7.15;;;5.38;;
64110;SDS011;50401;48.188;11.566;2023-06-10T11:00:31;5.70;;;4.80;;
64110;SDS011;50401;48.188;11.566;2023-06-10T11:03:06;6.28;;;4.53;;
64110;SDS011;50401;48.188;11.566;2023-06-10T11:08:06;5.78;;;4.57;;
64110;SDS011;50401;48.188;11.566;2023-06-10T11:10:33;5.97;;;4.53;;
64110;SDS011;50401;48.188;11.566;2023-06-10T11:13:07;5.90;;;4.25;;
64110;SDS011;50401;48.188;11.566;2023-06-10T11:15:33;5.65;;;4.43;;
64110;SDS011;50401;48.188;11.566;2023-06-10T11:20:41;7.05;;;4.93;;
64110;SDS011;50401;48.188;11.566;2023-06-10T11:28:38;7.32;;;5.35;;
64110;SDS011;50401;48.188;11.566;2023-06-10T11:31:04;6.40;;;4.85;;
64110;SDS011;50401;48.188;11.566;2023-06-10T11:33:30;8.68;;;5.53;;
64110;SDS011;50401;48.188;11.566;2023-06-10T11:35:56;5.93;;;4.80;;
64110;SDS011;50401;48.188;11.566;2023-06-10T11:38:23;7.05;;;5.05;;
64110;SDS011;50401;48.188;11.566;2023-06-10T11:40:49;6.95;;;4.70;;
64110;SDS011;50401;48.188;11.566;2023-06-10T11:43:15;4.82;;;4.32;;
64110;SDS011;50401;48.188;11.566;2023-06-10T11:45:42;5.53;;;3.90;;
64110;SDS011;50401;48.188;11.566;2023-06-10T11:48:09;7.38;;;6.18;;
64110;SDS011;50401;48.188;11.566;2023-06-10T11:50:34;9.88;;;5.22;;
64110;SDS011;50401;48.188;11.566;2023-06-10T11:53:00;7.18;;;4.30;;
64110;SDS011;50401;48.188;11.566;2023-06-10T11:55:40;5.45;;;4.85;;
64110;SDS011;50401;48.188;11.566;2023-06-10T11:58:16;5.93;;;5.18;;
64110;SDS011;50401;48.188;11.566;2023-06-10T12:00:46;7.70;;;5.22;;
64110;SDS011;50401;48.188;11.566;2023-06-10T12:03:15;7.78;;;4.78;;
64110;SDS011;50401;48.188;11.566;2023-06-10T12:08:42;6.25;;;4.95;;
64110;SDS011;50401;48.188;11.566;2023-06-10T12:11:08;5.20;;;4.70;;
64110;SDS011;50401;48.188;11.566;2023-06-10T12:13:34;6.07;;;5.13;;
64110;SDS011;50401;48.188;11.566;2023-06-10T12:16:08;8.57;;;5.47;;
64110;SDS011;50401;48.188;11.566;2023-06-10T12:18:34;7.05;;;4.93;;
64110;SDS011;50401;48.188;11.566;2023-06-10T12:21:00;5.13;;;4.10;;
64110;SDS011;50401;48.188;11.566;2023-06-10T12:23:26;7.53;;;4.28;;
64110;SDS011;50401;48.188;11.566;2023-06-10T12:25:54;5.45;;;4.10;;
64110;SDS011;50401;48.188;11.566;2023-06-10T12:28:25;4.40;;;3.88;;
64110;SDS011;50401;48.188;11.566;2023-06-10T12:30:51;6.32;;;4.30;;
64110;SDS011;50401;48.188;11.566;2023-06-10T12:33:23;8.18;;;3.72;;
64110;SDS011;50401;48.188;11.566;2023-06-10T12:38:14;6.82;;;4.10;;
64110;SDS011;50401;48.188;11.566;2023-06-10T12:40:45;6.43;;;4.40;;
64110;SDS011;50401;48.188;11.566;2023-06-10T12:43:10;7.72;;;4.10;;
64110;SDS011;50401;48.188;11.566;2023-06-10T12:45:37;5.72;;;4.13;;
64110;SDS011;50401;48.188;11.566;2023-06-10T12:50:35;4.88;;;4.07;;
64110;SDS011;50401;48.188;11.566;2023-06-10T12:53:02;3.63;;;3.22;;
64110;SDS011;50401;48.188;11.566;2023-06-10T12:55:28;5.13;;;3.63;;
64110;SDS011;50401;48.188;11.566;2023-06-10T12:57:54;6.78;;;5.15;;
64110;SDS011;50401;48.188;11.566;2023-06-10T13:00:20;6.68;;;4.90;;
64110;SDS011;50401;48.188;11.566;2023-06-10T13:02:46;7.97;;;4.78;;
64110;SDS011;50401;48.188;11.566;2023-06-10T13:05:13;10.55;;;5.35;;
64110;SDS011;50401;48.188;11.566;2023-06-10T13:07:38;8.32;;;4.90;;
64110;SDS011;50401;48.188;11.566;2023-06-10T13:10:04;7.72;;;6.20;;
64110;SDS011;50401;48.188;11.566;2023-06-10T13:12:29;8.25;;;5.95;;
64110;SDS011;50401;48.188;11.566;2023-06-10T13:14:55;8.73;;;5.38;;
64110;SDS011;50401;48.188;11.566;2023-06-10T13:17:23;8.00;;;5.60;;
64110;SDS011;50401;48.188;11.566;2023-06-10T13:19:49;7.25;;;4.97;;
64110;SDS011;50401;48.188;11.566;2023-06-10T13:22:14;7.35;;;5.10;;
64110;SDS011;50401;48.188;11.566;2023-06-10T13:24:40;6.22;;;4.97;;
64110;SDS011;50401;48.188;11.566;2023-06-10T13:27:06;8.73;;;4.53;;
64110;SDS011;50401;48.188;11.566;2023-06-10T13:29:32;5.90;;;4.80;;
64110;SDS011;50401;48.188;11.566;2023-06-10T13:31:57;8.57;;;4.68;;
64110;SDS011;50401;48.188;11.566;2023-06-10T13:34:23;4.97;;;4.28;;
64110;SDS011;50401;48.188;11.566;2023-06-10T13:36:48;7.32;;;4.38;;
64110;SDS011;50401;48.188;11.566;2023-06-10T13:39:13;8.50;;;4.72;;
64110;SDS011;50401;48.188;11.566;2023-06-10T13:41:40;5.00;;;4.32;;
64110;SDS011;50401;48.188;11.566;2023-06-10T13:44:06;8.32;;;4.93;;
64110;SDS011;50401;48.188;11.566;2023-06-10T13:46:32;6.40;;;4.57;;
64110;SDS011;50401;48.188;11.566;2023-06-10T13:48:57;5.05;;;4.45;;
64110;SDS011;50401;48.188;11.566;2023-06-10T13:51:22;6.13;;;4.45;;
64110;SDS011;50401;48.188;11.566;2023-06-10T13:53:48;5.38;;;4.75;;
64110;SDS011;50401;48.188;11.566;2023-06-10T13:56:13;6.20;;;4.43;;
64110;SDS011;50401;48.188;11.566;2023-06-10T13:58:39;9.60;;;4.55;;
64110;SDS011;50401;48.188;11.566;2023-06-10T14:01:06;5.55;;;4.97;;
64110;SDS011;50401;48.188;11.566;2023-06-10T14:03:31;6.80;;;4.53;;
64110;SDS011;50401;48.188;11.566;2023-06-10T14:05:57;5.93;;;4.40;;
64110;SDS011;50401;48.188;11.566;2023-06-10T14:08:22;5.25;;;4.57;;
64110;SDS011;50401;48.188;11.566;2023-06-10T14:10:48;8.65;;;5.75;;
64110;SDS011;50401;48.188;11.566;2023-06-10T14:13:15;5.63;;;4.97;;
64110;SDS011;50401;48.188;11.566;2023-06-10T14:15:41;5.53;;;4.80;;
64110;SDS011;50401;48.188;11.566;2023-06-10T14:18:06;6.60;;;4.53;;
64110;SDS011;50401;48.188;11.566;2023-06-10T14:20:32;7.10;;;4.78;;
64110;SDS011;50401;48.188;11.566;2023-06-10T14:22:57;8.48;;;4.68;;
64110;SDS011;50401;48.188;11.566;2023-06-10T14:25:23;6.85;;;4.72;;
64110;SDS011;50401;48.188;11.566;2023-06-10T14:27:49;7.30;;;4.22;;
64110;SDS011;50401;48.188;11.566;2023-06-10T14:30:15;6.45;;;4.05;;
64110;SDS011;50401;48.188;11.566;2023-06-10T14:32:41;5.05;;;4.00;;
64110;SDS011;50401;48.188;11.566;2023-06-10T14:35:07;5.97;;;4.32;;
64110;SDS011;50401;48.188;11.566;2023-06-10T14:37:32;7.20;;;4.45;;
64110;SDS011;50401;48.188;11.566;2023-06-10T14:39:57;4.57;;;4.18;;
64110;SDS011;50401;48.188;11.566;2023-06-10T14:42:23;5.68;;;4.32;;
64110;SDS011;50401;48.188;11.566;2023-06-10T14:44:48;15.80;;;3.97;;
64110;SDS011;50401;48.188;11.566;2023-06-10T14:47:14;4.20;;;3.65;;
64110;SDS011;50401;48.188;11.566;2023-06-10T14:49:40;6.15;;;4.55;;
64110;SDS011;50401;48.188;11.566;2023-06-10T14:52:07;4.97;;;3.95;;
64110;SDS011;50401;48.188;11.566;2023-06-10T14:54:33;7.40;;;4.63;;